createdAt,value
2023-04-10T00:04:14.692Z,11.45
2023-04-10T00:06:43.127Z,11.32
2023-04-10T00:09:11.224Z,10.48
2023-04-10T00:11:38.950Z,10.93
2023-04-10T00:14:06.413Z,10.07
2023-04-10T00:16:34.235Z,11.27
2023-04-10T00:19:02.190Z,10.93
2023-04-10T00:21:30.053Z,9.48
2023-04-10T00:23:57.719Z,10.75
2023-04-10T00:26:27.801Z,10.00
2023-04-10T00:28:55.831Z,10.55
2023-04-10T00:31:23.391Z,10.43
2023-04-10T00:33:51.468Z,10.63
2023-04-10T00:36:20.136Z,11.40
2023-04-10T00:38:49.800Z,10.95
2023-04-10T00:41:20.129Z,10.73
2023-04-10T00:43:48.624Z,10.48
2023-04-10T00:46:18.286Z,10.25
2023-04-10T00:48:47.817Z,10.05
2023-04-10T00:51:15.606Z,10.98
2023-04-10T00:53:44.675Z,10.98
2023-04-10T00:56:12.572Z,11.02
2023-04-10T00:58:40.107Z,10.55
2023-04-10T01:01:08.685Z,10.60
2023-04-10T01:03:37.361Z,10.23
2023-04-10T01:06:09.933Z,10.55
2023-04-10T01:08:40.774Z,10.65
2023-04-10T01:11:14.413Z,10.75
2023-04-10T01:13:48.751Z,10.32
2023-04-10T01:16:21.501Z,10.55
2023-04-10T01:18:54.657Z,10.57
2023-04-10T01:21:24.604Z,10.23
2023-04-10T01:24:07.418Z,10.63
2023-04-10T01:26:56.354Z,11.15
2023-04-10T01:29:27.535Z,10.38
2023-04-10T01:31:58.517Z,10.15
2023-04-10T01:34:35.244Z,11.30
2023-04-10T01:37:08.497Z,11.07
2023-04-10T01:39:40.691Z,10.70
2023-04-10T01:42:09.766Z,10.40
2023-04-10T01:44:43.181Z,10.57
2023-04-10T01:47:11.564Z,12.15
2023-04-10T01:49:44.747Z,10.73
2023-04-10T01:52:12.895Z,11.07
2023-04-10T01:54:45.405Z,10.32
2023-04-10T01:57:19.272Z,11.07
2023-04-10T01:59:54.996Z,11.90
2023-04-10T02:02:22.987Z,11.32
2023-04-10T02:04:51.911Z,10.93
2023-04-10T02:07:22.789Z,10.70
2023-04-10T02:09:57.199Z,11.60
2023-04-10T02:12:30.082Z,11.48
2023-04-10T02:15:01.906Z,11.90
2023-04-10T02:17:33.180Z,11.70
2023-04-10T02:20:00.969Z,11.43
2023-04-10T02:22:28.607Z,12.10
2023-04-10T02:24:56.543Z,12.85
2023-04-10T02:27:34.329Z,12.13
2023-04-10T02:30:05.604Z,11.95
2023-04-10T02:32:37.112Z,12.05
2023-04-10T02:35:08.977Z,12.20
2023-04-10T02:37:38.905Z,11.52
2023-04-10T02:40:08.366Z,11.35
2023-04-10T02:42:53.635Z,11.10
2023-04-10T02:45:22.520Z,11.73
2023-04-10T02:47:50.150Z,11.60
2023-04-10T02:50:21.354Z,12.45
2023-04-10T02:52:49.354Z,11.85
2023-04-10T02:55:19.429Z,11.90
2023-04-10T02:57:49.221Z,11.90
2023-04-10T03:00:19.037Z,11.63
2023-04-10T03:03:05.914Z,11.75
2023-04-10T03:05:42.540Z,11.65
2023-04-10T03:08:10.574Z,12.20
2023-04-10T03:10:38.015Z,11.90
2023-04-10T03:13:05.729Z,11.48
2023-04-10T03:15:34.606Z,11.70
2023-04-10T03:18:02.549Z,11.98
2023-04-10T03:20:30.385Z,11.73
2023-04-10T03:23:01.181Z,12.20
2023-04-10T03:25:28.984Z,12.25
2023-04-10T03:27:57.592Z,12.05
2023-04-10T03:30:25.885Z,11.50
2023-04-10T03:32:53.975Z,12.25
2023-04-10T03:35:21.532Z,11.65
2023-04-10T03:37:49.626Z,11.65
2023-04-10T03:40:19.140Z,12.60
2023-04-10T03:42:47.457Z,12.15
2023-04-10T03:45:15.333Z,12.15
2023-04-10T03:47:43.023Z,12.38
2023-04-10T03:50:13.582Z,12.48
2023-04-10T03:52:50.569Z,12.48
2023-04-10T03:55:21.122Z,11.32
2023-04-10T03:57:51.076Z,12.23
2023-04-10T04:00:21.611Z,12.05
2023-04-10T04:02:53.154Z,12.35
2023-04-10T04:05:42.800Z,10.80
2023-04-10T04:08:27.065Z,11.27
2023-04-10T04:11:29.081Z,12.50
2023-04-10T04:14:00.163Z,11.57
2023-04-10T04:16:47.392Z,11.75
2023-04-10T04:19:28.344Z,11.88
2023-04-10T04:22:10.708Z,11.23
2023-04-10T04:25:01.891Z,12.20
2023-04-10T04:27:50.004Z,11.75
2023-04-10T04:30:36.249Z,11.32
2023-04-10T04:36:09.447Z,11.88
2023-04-10T04:39:23.372Z,12.38
2023-04-10T04:42:04.301Z,11.90
2023-04-10T04:44:52.265Z,11.82
2023-04-10T04:47:38.721Z,11.27
2023-04-10T04:50:17.260Z,11.45
2023-04-10T04:53:04.569Z,12.27
2023-04-10T04:55:56.816Z,11.35
2023-04-10T04:58:43.337Z,11.45
2023-04-10T05:01:37.470Z,12.02
2023-04-10T05:04:25.152Z,12.13
2023-04-10T05:07:15.811Z,12.60
2023-04-10T05:10:16.945Z,12.00
2023-04-10T05:13:12.882Z,12.18
2023-04-10T05:15:54.361Z,11.85
2023-04-10T05:21:44.770Z,12.00
2023-04-10T05:24:24.525Z,12.45
2023-04-10T05:27:14.602Z,12.95
2023-04-10T05:29:59.680Z,12.23
2023-04-10T05:32:50.557Z,11.63
2023-04-10T05:35:38.953Z,12.00
2023-04-10T05:41:22.267Z,11.60
2023-04-10T05:44:08.990Z,12.25
2023-04-10T05:46:55.651Z,11.95
2023-04-10T05:49:49.965Z,12.05
2023-04-10T05:52:35.081Z,11.63
2023-04-10T05:55:22.911Z,12.13
2023-04-10T05:58:09.381Z,12.63
2023-04-10T06:00:58.707Z,12.57
2023-04-10T06:03:59.163Z,12.77
2023-04-10T06:06:27.449Z,12.13
2023-04-10T06:08:57.539Z,11.63
2023-04-10T06:11:25.351Z,12.77
2023-04-10T06:13:55.929Z,12.35
2023-04-10T06:16:31.014Z,11.32
2023-04-10T06:18:59.276Z,12.07
2023-04-10T06:21:26.920Z,12.10
2023-04-10T06:23:55.120Z,11.45
2023-04-10T06:26:23.491Z,11.85
2023-04-10T06:28:51.345Z,11.95
2023-04-10T06:31:22.845Z,12.70
2023-04-10T06:33:51.378Z,11.65
2023-04-10T06:36:19.652Z,12.52
2023-04-10T06:38:58.098Z,11.25
2023-04-10T06:41:25.944Z,12.00
2023-04-10T06:43:56.546Z,12.43
2023-04-10T06:46:26.659Z,11.93
2023-04-10T06:48:57.840Z,11.88
2023-04-10T06:51:26.169Z,12.00
2023-04-10T06:53:53.824Z,11.52
2023-04-10T06:56:21.836Z,11.65
2023-04-10T06:58:49.531Z,12.23
2023-04-10T07:01:19.049Z,11.80
2023-04-10T07:03:58.043Z,12.00
2023-04-10T07:06:26.297Z,12.50
2023-04-10T07:08:54.593Z,11.80
2023-04-10T07:11:22.559Z,12.68
2023-04-10T07:13:53.958Z,11.40
2023-04-10T07:16:23.783Z,11.57
2023-04-10T07:18:51.536Z,11.23
2023-04-10T07:21:20.052Z,11.55
2023-04-10T07:23:49.697Z,11.40
2023-04-10T07:26:18.655Z,11.32
2023-04-10T07:28:47.066Z,11.30
2023-04-10T07:31:15.174Z,11.60
2023-04-10T07:33:42.921Z,11.60
2023-04-10T07:36:10.820Z,11.48
2023-04-10T07:38:39.290Z,10.95
2023-04-10T07:41:07.047Z,12.02
2023-04-10T07:43:34.735Z,11.88
2023-04-10T07:46:02.685Z,12.27
2023-04-10T07:48:30.988Z,12.30
2023-04-10T07:51:06.513Z,11.57
2023-04-10T07:53:34.306Z,11.68
2023-04-10T07:56:01.986Z,11.07
2023-04-10T07:58:30.039Z,11.13
2023-04-10T08:00:59.057Z,10.93
2023-04-10T08:03:27.859Z,11.82
2023-04-10T08:05:58.347Z,10.60
2023-04-10T08:08:25.991Z,10.77
2023-04-10T08:10:59.841Z,10.07
2023-04-10T08:13:33.685Z,9.98
2023-04-10T08:16:01.789Z,9.98
2023-04-10T08:18:29.584Z,10.20
2023-04-10T08:21:00.837Z,9.75
2023-04-10T08:23:28.569Z,10.05
2023-04-10T08:25:57.069Z,9.95
2023-04-10T08:28:24.760Z,9.90
2023-04-10T08:30:54.581Z,9.27
2023-04-10T08:33:31.064Z,9.38
2023-04-10T08:35:58.853Z,8.70
2023-04-10T08:38:28.321Z,9.07
2023-04-10T08:40:57.016Z,8.85
2023-04-10T08:43:26.163Z,8.35
2023-04-10T08:45:54.203Z,8.25
2023-04-10T08:48:22.794Z,8.77
2023-04-10T08:50:50.683Z,8.82
2023-04-10T08:53:21.221Z,8.68
2023-04-10T08:58:22.546Z,8.48
2023-04-10T09:00:58.720Z,8.52
2023-04-10T09:03:26.680Z,8.70
2023-04-10T09:05:55.105Z,7.90
2023-04-10T09:08:23.169Z,9.15
2023-04-10T09:10:50.839Z,8.10
2023-04-10T09:13:35.758Z,8.20
2023-04-10T09:16:10.879Z,8.70
2023-04-10T09:18:47.796Z,8.00
2023-04-10T09:24:05.072Z,8.00
2023-04-10T09:26:33.921Z,7.65
2023-04-10T09:29:07.565Z,7.85
2023-04-10T09:31:36.854Z,7.68
2023-04-10T09:34:23.046Z,8.02
2023-04-10T09:36:55.783Z,7.88
2023-04-10T09:39:23.716Z,8.00
2023-04-10T09:41:58.308Z,7.90
2023-04-10T09:44:33.327Z,7.55
2023-04-10T09:47:27.513Z,7.75
2023-04-10T09:50:00.930Z,7.50
2023-04-10T09:52:29.127Z,7.85
2023-04-10T09:55:08.936Z,7.00
2023-04-10T09:57:36.644Z,7.70
2023-04-10T10:00:05.589Z,7.47
2023-04-10T10:02:39.462Z,7.53
2023-04-10T10:05:10.249Z,7.75
2023-04-10T10:07:39.569Z,6.95
2023-04-10T10:10:09.463Z,7.65
2023-04-10T10:12:50.691Z,6.88
2023-04-10T10:15:32.872Z,7.78
2023-04-10T10:18:19.772Z,7.32
2023-04-10T10:20:48.816Z,7.53
2023-04-10T10:23:18.748Z,7.07
2023-04-10T10:25:48.671Z,7.35
2023-04-10T10:28:19.402Z,7.85
2023-04-10T10:33:19.644Z,7.53
2023-04-10T10:35:50.347Z,7.28
2023-04-10T10:38:19.376Z,7.32
2023-04-10T10:40:48.236Z,6.65
2023-04-10T10:43:19.239Z,6.80
2023-04-10T10:45:59.333Z,6.65
2023-04-10T10:48:26.921Z,6.70
2023-04-10T10:51:04.040Z,7.07
2023-04-10T10:53:43.426Z,6.50
2023-04-10T10:56:20.588Z,6.10
2023-04-10T10:58:53.314Z,6.95
2023-04-10T11:01:22.516Z,6.60
2023-04-10T11:03:51.180Z,6.30
2023-04-10T11:06:21.889Z,6.40
2023-04-10T11:08:54.124Z,7.15
2023-04-10T11:11:25.237Z,6.38
2023-04-10T11:13:58.090Z,6.47
2023-04-10T11:16:47.686Z,6.15
2023-04-10T11:19:20.818Z,6.20
2023-04-10T11:22:04.348Z,6.45
2023-04-10T11:24:52.230Z,6.55
2023-04-10T11:27:42.988Z,6.40
2023-04-10T11:30:29.397Z,6.38
2023-04-10T11:32:57.435Z,6.75
2023-04-10T11:35:26.954Z,6.78
2023-04-10T11:38:17.676Z,5.82
2023-04-10T11:40:59.274Z,5.93
2023-04-10T11:43:27.309Z,5.30
2023-04-10T11:46:02.710Z,5.60
2023-04-10T11:48:30.730Z,5.13
2023-04-10T11:51:00.452Z,5.05
2023-04-10T11:53:30.083Z,4.88
2023-04-10T11:55:58.123Z,4.63
2023-04-10T11:58:32.666Z,5.22
2023-04-10T12:01:01.587Z,4.40
2023-04-10T12:03:42.821Z,4.60
2023-04-10T12:06:15.208Z,4.57
2023-04-10T12:08:51.118Z,4.45
2023-04-10T12:11:21.496Z,4.43
2023-04-10T12:13:54.771Z,4.15
2023-04-10T12:16:23.129Z,4.18
2023-04-10T12:18:52.923Z,4.10
2023-04-10T12:21:20.940Z,4.00
2023-04-10T12:23:49.711Z,3.80
2023-04-10T12:26:19.110Z,4.30
2023-04-10T12:28:54.891Z,4.00
2023-04-10T12:31:36.456Z,3.80
2023-04-10T12:34:09.214Z,4.03
2023-04-10T12:36:37.776Z,4.28
2023-04-10T12:39:07.510Z,4.13
2023-04-10T12:41:36.196Z,4.68
2023-04-10T12:44:23.410Z,3.83
2023-04-10T12:46:51.242Z,4.00
2023-04-10T12:49:20.338Z,3.92
2023-04-10T12:51:49.395Z,3.70
2023-04-10T12:54:33.472Z,3.80
2023-04-10T12:57:05.333Z,4.05
2023-04-10T12:59:33.831Z,4.00
2023-04-10T13:02:01.852Z,3.80
2023-04-10T13:04:32.370Z,3.28
2023-04-10T13:09:29.462Z,4.05
2023-04-10T13:11:57.837Z,3.60
2023-04-10T13:14:27.197Z,4.03
2023-04-10T13:17:05.436Z,3.40
2023-04-10T13:19:32.994Z,3.95
2023-04-10T13:22:03.521Z,4.05
2023-04-10T13:24:31.835Z,3.92
2023-04-10T13:26:59.413Z,3.58
2023-04-10T13:29:27.042Z,3.40
2023-04-10T13:31:56.424Z,3.15
2023-04-10T13:34:24.531Z,3.78
2023-04-10T13:36:52.217Z,3.53
2023-04-10T13:39:19.950Z,3.60
2023-04-10T13:41:51.020Z,3.70
2023-04-10T13:44:27.415Z,3.67
2023-04-10T13:46:55.284Z,3.30
2023-04-10T13:49:31.896Z,3.90
2023-04-10T13:51:59.668Z,3.30
2023-04-10T13:54:27.338Z,3.47
2023-04-10T13:56:55.067Z,3.10
2023-04-10T13:59:22.823Z,3.50
2023-04-10T14:01:53.658Z,3.55
2023-04-10T14:04:22.295Z,3.15
2023-04-10T14:06:54.239Z,3.03
2023-04-10T14:09:22.007Z,3.58
2023-04-10T14:11:53.041Z,2.95
2023-04-10T14:14:24.246Z,3.38
2023-04-10T14:16:52.763Z,3.10
2023-04-10T14:19:20.772Z,3.40
2023-04-10T14:21:53.427Z,3.22
2023-04-10T14:24:21.625Z,3.13
2023-04-10T14:26:51.812Z,3.40
2023-04-10T14:29:33.235Z,3.28
2023-04-10T14:32:04.371Z,3.42
2023-04-10T14:34:32.823Z,3.10
2023-04-10T14:37:00.494Z,3.03
2023-04-10T14:39:31.588Z,3.20
2023-04-10T14:41:59.213Z,2.95
2023-04-10T14:44:26.726Z,2.88
2023-04-10T14:46:54.642Z,2.60
2023-04-10T14:49:22.819Z,3.20
2023-04-10T14:51:50.915Z,3.25
2023-04-10T14:54:23.803Z,3.05
2023-04-10T14:56:51.463Z,2.80
2023-04-10T14:59:19.225Z,3.08
2023-04-10T15:01:50.494Z,2.90
2023-04-10T15:04:21.108Z,3.10
2023-04-10T15:09:22.016Z,3.03
2023-04-10T15:11:50.927Z,2.85
2023-04-10T15:14:19.492Z,2.97
2023-04-10T15:16:48.413Z,3.70
2023-04-10T15:19:16.699Z,3.88
2023-04-10T15:21:44.974Z,3.55
2023-04-10T15:24:12.652Z,3.05
2023-04-10T15:26:45.626Z,3.65
2023-04-10T15:29:13.566Z,3.45
2023-04-10T15:31:41.555Z,3.88
2023-04-10T15:34:09.348Z,3.47
2023-04-10T15:36:37.059Z,4.05
2023-04-10T15:39:05.316Z,3.40
2023-04-10T15:41:33.498Z,3.63
2023-04-10T15:44:01.383Z,4.22
2023-04-10T15:46:32.723Z,3.28
2023-04-10T15:49:01.976Z,3.45
2023-04-10T15:51:30.531Z,3.60
2023-04-10T15:53:58.142Z,3.78
2023-04-10T15:56:25.901Z,3.78
2023-04-10T15:58:53.597Z,3.70
2023-04-10T16:01:23.498Z,3.58
2023-04-10T16:06:20.057Z,3.20
2023-04-10T16:08:48.472Z,3.08
2023-04-10T16:11:17.217Z,2.80
2023-04-10T16:13:45.147Z,2.80
2023-04-10T16:16:18.682Z,2.67
2023-04-10T16:18:48.020Z,3.15
2023-04-10T16:21:15.753Z,2.88
2023-04-10T16:23:43.333Z,3.00
2023-04-10T16:26:10.877Z,3.03
2023-04-10T16:28:38.493Z,3.30
2023-04-10T16:31:06.645Z,3.72
2023-04-10T16:33:34.339Z,3.50
2023-04-10T16:36:05.403Z,3.17
2023-04-10T16:38:34.696Z,3.22
2023-04-10T16:41:03.642Z,3.33
2023-04-10T16:43:31.149Z,3.00
2023-04-10T16:45:59.852Z,3.33
2023-04-10T16:48:27.532Z,3.20
2023-04-10T16:50:55.275Z,3.17
2023-04-10T16:53:22.988Z,2.92
2023-04-10T16:56:02.830Z,3.22
2023-04-10T16:58:33.144Z,3.20
2023-04-10T17:01:01.318Z,3.58
2023-04-10T17:03:29.023Z,3.58
2023-04-10T17:05:56.804Z,3.45
2023-04-10T17:08:24.563Z,3.80
2023-04-10T17:10:52.283Z,4.70
2023-04-10T17:13:20.291Z,5.32
2023-04-10T17:16:00.769Z,5.93
2023-04-10T17:18:31.062Z,6.00
2023-04-10T17:20:59.296Z,6.22
2023-04-10T17:23:27.102Z,6.70
2023-04-10T17:25:55.101Z,6.47
2023-04-10T17:28:22.683Z,7.28
2023-04-10T17:30:50.736Z,7.40
2023-04-10T17:33:21.752Z,8.05
2023-04-10T17:35:50.655Z,7.78
2023-04-10T17:38:21.347Z,7.95
2023-04-10T17:40:49.879Z,7.60
2023-04-10T17:43:20.642Z,8.57
2023-04-10T17:45:49.361Z,7.93
2023-04-10T17:48:30.125Z,8.18
2023-04-10T17:50:58.275Z,8.00
2023-04-10T17:53:26.959Z,8.50
2023-04-10T17:55:54.957Z,7.93
2023-04-10T17:58:22.931Z,7.47
2023-04-10T18:00:50.745Z,7.63
2023-04-10T18:03:19.476Z,7.63
2023-04-10T18:05:48.149Z,7.30
2023-04-10T18:08:16.250Z,7.55
2023-04-10T18:10:44.714Z,7.18
2023-04-10T18:13:12.534Z,7.20
2023-04-10T18:15:39.969Z,6.75
2023-04-10T18:18:12.383Z,6.93
2023-04-10T18:20:40.084Z,6.97
2023-04-10T18:23:08.215Z,7.25
2023-04-10T18:25:35.984Z,7.72
2023-04-10T18:28:14.373Z,8.35
2023-04-10T18:30:48.182Z,7.57
2023-04-10T18:33:24.096Z,7.15
2023-04-10T18:35:56.109Z,8.13
2023-04-10T18:38:27.468Z,6.80
2023-04-10T18:40:56.594Z,6.70
2023-04-10T18:43:27.779Z,6.82
2023-04-10T18:45:55.856Z,7.35
2023-04-10T18:48:23.906Z,7.13
2023-04-10T18:50:53.377Z,7.32
2023-04-10T18:53:21.946Z,8.00
2023-04-10T18:55:54.441Z,7.45
2023-04-10T18:58:22.919Z,7.18
2023-04-10T19:00:50.755Z,7.38
2023-04-10T19:03:20.188Z,7.22
2023-04-10T19:05:48.970Z,7.15
2023-04-10T19:08:20.030Z,6.88
2023-04-10T19:10:48.876Z,6.90
2023-04-10T19:13:17.232Z,7.32
2023-04-10T19:15:53.189Z,6.78
2023-04-10T19:18:21.207Z,5.63
2023-04-10T19:20:53.418Z,6.05
2023-04-10T19:23:22.031Z,6.57
2023-04-10T19:25:54.193Z,5.45
2023-04-10T19:28:22.987Z,5.40
2023-04-10T19:30:50.858Z,5.30
2023-04-10T19:33:22.512Z,5.65
2023-04-10T19:35:50.339Z,4.88
2023-04-10T19:38:21.047Z,4.38
2023-04-10T19:43:17.313Z,3.67
2023-04-10T19:45:45.037Z,3.47
2023-04-10T19:48:12.737Z,3.40
2023-04-10T19:50:40.875Z,3.60
2023-04-10T19:53:13.024Z,3.35
2023-04-10T19:55:41.260Z,3.28
2023-04-10T19:58:13.431Z,2.97
2023-04-10T20:00:52.311Z,2.70
2023-04-10T20:03:26.892Z,2.95
2023-04-10T20:05:55.554Z,2.88
2023-04-10T20:08:23.401Z,2.90
2023-04-10T20:10:51.065Z,2.55
2023-04-10T20:13:19.743Z,2.50
2023-04-10T20:15:48.951Z,2.78
2023-04-10T20:18:18.230Z,2.88
2023-04-10T20:20:50.235Z,2.40
2023-04-10T20:23:19.128Z,2.65
2023-04-10T20:25:47.292Z,2.90
2023-04-10T20:28:17.228Z,2.70
2023-04-10T20:30:45.694Z,2.83
2023-04-10T20:33:13.250Z,2.42
2023-04-10T20:35:41.284Z,3.13
2023-04-10T20:38:08.871Z,2.40
2023-04-10T20:40:36.562Z,2.40
2023-04-10T20:43:11.436Z,2.63
2023-04-10T20:45:39.969Z,2.35
2023-04-10T20:48:07.959Z,2.30
2023-04-10T20:50:37.220Z,3.03
2023-04-10T20:53:05.171Z,2.90
2023-04-10T20:55:32.869Z,2.60
2023-04-10T20:58:00.485Z,3.35
2023-04-10T21:00:31.140Z,2.67
2023-04-10T21:02:59.586Z,2.95
2023-04-10T21:05:27.373Z,2.80
2023-04-10T21:07:55.231Z,2.97
2023-04-10T21:10:22.882Z,2.65
2023-04-10T21:12:51.178Z,3.25
2023-04-10T21:15:19.584Z,4.45
2023-04-10T21:17:48.477Z,2.83
2023-04-10T21:20:16.131Z,3.67
2023-04-10T21:22:45.228Z,3.00
2023-04-10T21:25:12.896Z,3.15
2023-04-10T21:27:41.031Z,2.90
2023-04-10T21:30:12.525Z,3.20
2023-04-10T21:32:40.307Z,3.85
2023-04-10T21:35:08.874Z,3.55
2023-04-10T21:37:36.766Z,2.72
2023-04-10T21:40:04.497Z,3.58
2023-04-10T21:42:33.530Z,3.38
2023-04-10T21:45:01.384Z,2.97
2023-04-10T21:47:28.916Z,4.13
2023-04-10T21:49:56.614Z,3.33
2023-04-10T21:52:24.101Z,3.08
2023-04-10T21:54:51.798Z,4.10
2023-04-10T21:57:19.443Z,3.65
2023-04-10T21:59:50.696Z,3.70
2023-04-10T22:02:19.562Z,4.57
2023-04-10T22:04:54.298Z,3.88
2023-04-10T22:07:22.569Z,4.07
2023-04-10T22:09:50.570Z,4.28
2023-04-10T22:12:21.108Z,4.10
2023-04-10T22:17:18.594Z,3.83
2023-04-10T22:19:46.235Z,4.07
2023-04-10T22:22:20.831Z,4.60
2023-04-10T22:24:49.672Z,4.43
2023-04-10T22:27:18.390Z,4.50
2023-04-10T22:29:56.264Z,3.95
2023-04-10T22:32:30.175Z,4.53
2023-04-10T22:34:59.661Z,3.67
2023-04-10T22:37:28.313Z,4.10
2023-04-10T22:39:57.638Z,4.60
2023-04-10T22:42:26.583Z,4.97
2023-04-10T22:44:57.223Z,4.05
2023-04-10T22:47:28.281Z,3.80
2023-04-10T22:49:57.133Z,4.43
2023-04-10T22:52:24.912Z,5.35
2023-04-10T22:54:52.817Z,5.25
2023-04-10T22:57:20.503Z,3.92
2023-04-10T22:59:48.638Z,4.28
2023-04-10T23:02:17.781Z,4.82
2023-04-10T23:04:45.679Z,5.07
2023-04-10T23:07:14.901Z,5.30
2023-04-10T23:09:42.778Z,5.07
2023-04-10T23:12:11.159Z,5.15
2023-04-10T23:14:38.852Z,5.35
2023-04-10T23:17:06.636Z,5.53
2023-04-10T23:19:34.229Z,5.47
2023-04-10T23:22:01.729Z,5.80
2023-04-10T23:24:29.545Z,5.90
2023-04-10T23:26:57.076Z,6.43
2023-04-10T23:29:24.719Z,5.97
2023-04-10T23:31:52.424Z,5.72
2023-04-10T23:34:21.209Z,5.18
2023-04-10T23:36:51.765Z,5.47
2023-04-10T23:41:49.161Z,5.75
2023-04-10T23:44:17.478Z,6.55
2023-04-10T23:46:45.251Z,5.70
2023-04-10T23:49:12.947Z,5.90
2023-04-10T23:51:40.572Z,5.78
2023-04-10T23:54:08.542Z,5.65
2023-04-10T23:56:36.339Z,5.10
2023-04-10T23:59:06.141Z,5.95
